createdAt,value
2022-11-30T00:01:48.452Z,17.13
2022-11-30T00:06:56.998Z,17.17
2022-11-30T00:12:00.236Z,16.93
2022-11-30T00:17:05.016Z,17.33
2022-11-30T00:22:08.422Z,15.77
2022-11-30T00:27:11.701Z,16.23
2022-11-30T00:32:16.379Z,16.27
2022-11-30T00:37:19.796Z,15.43
2022-11-30T00:42:23.220Z,16.70
2022-11-30T00:47:27.959Z,16.13
2022-11-30T00:52:31.682Z,15.37
2022-11-30T00:57:34.977Z,17.35
2022-11-30T01:02:39.704Z,16.33
2022-11-30T01:07:43.096Z,16.20
2022-11-30T01:12:46.532Z,17.23
2022-11-30T01:17:51.361Z,16.00
2022-11-30T01:22:55.997Z,16.67
2022-11-30T01:27:59.235Z,17.50
2022-11-30T01:33:05.873Z,17.27
2022-11-30T01:38:09.125Z,17.80
2022-11-30T01:43:13.356Z,16.87
2022-11-30T01:48:18.062Z,17.00
2022-11-30T01:53:21.406Z,16.73
2022-11-30T01:58:28.639Z,17.30
2022-11-30T02:03:41.133Z,16.83
2022-11-30T02:08:44.794Z,17.47
2022-11-30T02:14:00.016Z,17.27
2022-11-30T02:19:19.179Z,16.93
2022-11-30T02:24:38.299Z,17.33
2022-11-30T02:29:45.243Z,17.33
2022-11-30T02:34:50.713Z,16.73
2022-11-30T02:39:53.857Z,16.33
2022-11-30T02:44:58.580Z,17.37
2022-11-30T02:50:06.030Z,16.67
2022-11-30T02:55:11.614Z,15.47
2022-11-30T03:00:18.687Z,15.43
2022-11-30T03:05:22.040Z,16.20
2022-11-30T03:10:25.647Z,16.00
2022-11-30T03:15:30.260Z,16.20
2022-11-30T03:20:34.018Z,16.73
2022-11-30T03:25:37.336Z,17.95
2022-11-30T03:30:42.096Z,15.73
2022-11-30T03:35:45.613Z,15.60
2022-11-30T03:40:49.029Z,16.67
2022-11-30T03:45:53.578Z,16.73
2022-11-30T03:50:57.020Z,16.23
2022-11-30T03:56:02.234Z,15.37
2022-11-30T04:01:09.649Z,17.03
2022-11-30T04:06:13.992Z,16.27
2022-11-30T04:16:21.859Z,14.67
2022-11-30T04:21:25.267Z,16.63
2022-11-30T04:26:28.549Z,16.30
2022-11-30T04:31:33.275Z,16.27
2022-11-30T04:36:36.786Z,15.80
2022-11-30T04:41:41.074Z,15.33
2022-11-30T04:46:45.742Z,14.73
2022-11-30T04:51:49.075Z,15.73
2022-11-30T04:56:52.360Z,14.90
2022-11-30T05:01:57.428Z,16.27
2022-11-30T05:07:00.843Z,16.67
2022-11-30T05:12:04.255Z,16.47
2022-11-30T05:17:08.961Z,15.73
2022-11-30T05:22:12.302Z,16.37
2022-11-30T05:27:22.200Z,15.90
2022-11-30T05:32:27.206Z,17.23
2022-11-30T05:37:30.669Z,16.53
2022-11-30T05:42:34.111Z,17.87
2022-11-30T05:47:38.959Z,17.73
2022-11-30T05:52:42.284Z,17.10
2022-11-30T05:57:45.492Z,15.83
2022-11-30T06:02:50.247Z,17.47
2022-11-30T06:07:53.521Z,18.83
2022-11-30T06:12:57.107Z,20.10
2022-11-30T06:18:01.747Z,19.53
2022-11-30T06:23:05.162Z,18.63
2022-11-30T06:28:10.730Z,19.67
2022-11-30T06:33:15.476Z,18.47
2022-11-30T06:38:18.846Z,18.87
2022-11-30T06:43:22.130Z,18.10
2022-11-30T06:48:26.692Z,17.90
2022-11-30T06:58:32.949Z,17.88
2022-11-30T07:03:37.665Z,18.17
2022-11-30T07:08:41.927Z,19.48
2022-11-30T07:13:45.844Z,20.88
2022-11-30T07:18:50.501Z,20.15
2022-11-30T07:24:12.714Z,19.98
2022-11-30T07:29:16.023Z,22.52
2022-11-30T07:34:21.050Z,22.83
2022-11-30T07:39:24.874Z,23.25
2022-11-30T07:44:28.230Z,23.23
2022-11-30T07:49:32.847Z,22.75
2022-11-30T07:54:36.257Z,23.65
2022-11-30T07:59:39.641Z,22.55
2022-11-30T08:04:44.568Z,24.60
2022-11-30T08:09:49.188Z,24.92
2022-11-30T08:15:18.657Z,24.75
2022-11-30T08:20:17.234Z,28.05
2022-11-30T08:25:20.517Z,26.77
2022-11-30T08:30:27.861Z,26.08
2022-11-30T08:35:35.668Z,24.17
2022-11-30T08:40:39.009Z,25.00
2022-11-30T08:45:42.431Z,24.98
2022-11-30T08:50:47.049Z,25.15
2022-11-30T08:55:58.015Z,23.98
2022-11-30T09:01:07.838Z,23.65
2022-11-30T09:06:14.008Z,23.40
2022-11-30T09:11:19.348Z,23.80
2022-11-30T09:16:23.480Z,25.20
2022-11-30T09:21:28.162Z,24.90
2022-11-30T09:31:34.673Z,23.45
2022-11-30T09:36:39.448Z,22.50
2022-11-30T09:42:14.641Z,24.58
2022-11-30T09:47:33.097Z,23.25
2022-11-30T09:52:41.332Z,23.13
2022-11-30T09:57:47.967Z,24.07
2022-11-30T10:02:53.209Z,21.63
2022-11-30T10:08:19.186Z,21.33
2022-11-30T10:13:36.078Z,20.70
2022-11-30T10:18:51.768Z,24.73
2022-11-30T10:24:22.176Z,24.33
2022-11-30T10:29:32.300Z,23.20
2022-11-30T10:34:37.637Z,22.87
2022-11-30T10:39:54.100Z,23.37
2022-11-30T10:45:02.421Z,24.87
2022-11-30T10:50:08.852Z,25.10
2022-11-30T10:55:20.040Z,25.23
2022-11-30T11:00:23.898Z,25.30
2022-11-30T11:05:29.418Z,26.23
2022-11-30T11:10:37.141Z,27.40
2022-11-30T11:15:40.728Z,26.50
2022-11-30T11:20:43.917Z,29.23
2022-11-30T11:25:53.461Z,23.67
2022-11-30T11:30:58.718Z,22.63
2022-11-30T11:36:15.724Z,23.40
2022-11-30T11:41:25.497Z,23.77
2022-11-30T11:46:30.223Z,24.60
2022-11-30T11:51:35.801Z,26.00
2022-11-30T11:56:42.477Z,28.53
2022-11-30T12:01:54.352Z,24.53
2022-11-30T12:07:01.429Z,25.10
2022-11-30T12:12:06.955Z,24.10
2022-11-30T12:17:40.328Z,26.53
2022-11-30T12:23:06.707Z,26.50
2022-11-30T12:28:23.100Z,25.30
2022-11-30T12:33:41.512Z,27.00
2022-11-30T12:38:50.490Z,27.60
2022-11-30T12:44:04.340Z,28.13
2022-11-30T12:49:21.255Z,26.53
2022-11-30T12:54:32.103Z,28.83
2022-11-30T12:59:45.148Z,28.43
2022-11-30T13:04:58.051Z,26.40
2022-11-30T13:10:07.522Z,28.50
2022-11-30T13:15:19.082Z,30.03
2022-11-30T13:20:30.101Z,29.60
2022-11-30T13:31:10.158Z,30.90
2022-11-30T13:36:25.787Z,29.77
2022-11-30T13:41:29.487Z,30.57
2022-11-30T13:46:34.208Z,29.13
2022-11-30T13:51:39.786Z,30.83
2022-11-30T13:56:48.467Z,29.70
2022-11-30T14:07:35.988Z,31.60
2022-11-30T14:13:01.621Z,31.02
2022-11-30T14:18:17.628Z,30.60
2022-11-30T14:23:23.851Z,28.67
2022-11-30T14:28:44.382Z,29.77
2022-11-30T14:33:54.602Z,29.03
2022-11-30T14:38:58.059Z,30.80
2022-11-30T14:44:08.031Z,30.03
2022-11-30T14:49:18.296Z,28.70
2022-11-30T14:54:39.103Z,28.60
2022-11-30T14:59:48.834Z,28.97
2022-11-30T15:04:55.744Z,28.80
2022-11-30T15:10:05.732Z,29.60
2022-11-30T15:15:17.091Z,29.20
2022-11-30T15:20:27.907Z,28.67
2022-11-30T15:25:38.757Z,29.77
2022-11-30T15:30:44.552Z,27.43
2022-11-30T15:41:20.558Z,30.67
2022-11-30T15:46:32.988Z,27.73
2022-11-30T15:51:42.561Z,31.53
2022-11-30T15:56:57.794Z,30.30
2022-11-30T16:02:08.909Z,26.40
2022-11-30T16:07:19.197Z,31.70
2022-11-30T16:12:29.624Z,31.27
2022-11-30T16:17:34.514Z,29.20
2022-11-30T16:22:42.379Z,29.80
2022-11-30T16:27:47.982Z,31.73
2022-11-30T16:32:51.995Z,29.87
2022-11-30T16:37:56.890Z,32.30
2022-11-30T16:43:00.495Z,31.17
2022-11-30T16:48:04.879Z,33.37
2022-11-30T16:58:15.246Z,28.53
2022-11-30T17:03:24.180Z,31.20
2022-11-30T17:08:29.178Z,30.03
2022-11-30T17:13:34.440Z,31.93
2022-11-30T17:18:38.220Z,29.80
2022-11-30T17:23:43.335Z,29.55
2022-11-30T17:28:49.746Z,27.60
2022-11-30T17:33:53.111Z,28.10
2022-11-30T17:38:58.129Z,29.50
2022-11-30T17:44:03.229Z,27.77
2022-11-30T17:49:07.458Z,28.17
2022-11-30T17:54:13.302Z,28.67
2022-11-30T17:59:17.109Z,27.63
2022-11-30T18:04:20.608Z,28.08
2022-11-30T18:09:25.548Z,27.07
2022-11-30T18:14:28.977Z,28.20
2022-11-30T18:19:32.348Z,25.63
2022-11-30T18:24:37.135Z,26.33
2022-11-30T18:29:40.613Z,28.73
2022-11-30T18:34:49.369Z,28.73
2022-11-30T18:39:54.462Z,27.10
2022-11-30T18:44:57.802Z,26.07
2022-11-30T18:50:01.340Z,26.57
2022-11-30T18:55:06.884Z,26.17
2022-11-30T19:00:11.538Z,26.27
2022-11-30T19:05:31.713Z,29.43
2022-11-30T19:10:37.589Z,25.10
2022-11-30T19:15:42.271Z,26.20
2022-11-30T19:20:46.716Z,24.83
2022-11-30T19:30:54.859Z,25.98
2022-11-30T19:36:03.204Z,24.27
2022-11-30T19:41:09.273Z,23.30
2022-11-30T19:46:14.524Z,24.60
2022-11-30T19:51:18.910Z,25.17
2022-11-30T19:56:25.001Z,26.40
2022-11-30T20:01:29.090Z,25.63
2022-11-30T20:06:36.360Z,23.52
2022-11-30T20:11:41.375Z,25.40
2022-11-30T20:16:44.946Z,24.87
2022-11-30T20:21:48.928Z,23.73
2022-11-30T20:26:53.757Z,23.55
2022-11-30T20:31:57.384Z,24.83
2022-11-30T20:37:00.722Z,25.55
2022-11-30T20:42:05.592Z,25.47
2022-11-30T20:47:09.214Z,26.37
2022-11-30T20:52:12.566Z,24.40
2022-11-30T20:57:17.194Z,24.63
2022-11-30T21:02:20.572Z,26.20
2022-11-30T21:07:24.148Z,25.20
2022-11-30T21:12:28.787Z,24.33
2022-11-30T21:17:32.101Z,25.30
2022-11-30T21:22:35.446Z,23.00
2022-11-30T21:27:40.116Z,23.87
2022-11-30T21:32:43.520Z,26.47
2022-11-30T21:37:46.974Z,22.27
2022-11-30T21:42:51.703Z,22.50
2022-11-30T21:47:55.107Z,23.77
2022-11-30T21:52:58.451Z,25.70
2022-11-30T21:58:03.155Z,22.87
2022-11-30T22:03:06.619Z,24.97
2022-11-30T22:08:09.991Z,24.43
2022-11-30T22:13:14.605Z,25.50
2022-11-30T22:18:18.075Z,24.47
2022-11-30T22:23:21.853Z,23.67
2022-11-30T22:28:26.636Z,23.35
2022-11-30T22:33:29.995Z,23.17
2022-11-30T22:38:33.649Z,22.70
2022-11-30T22:43:38.557Z,23.50
2022-11-30T22:48:42.664Z,22.43
2022-11-30T22:53:47.666Z,23.08
2022-11-30T22:58:54.461Z,23.17
2022-11-30T23:04:02.321Z,21.87
2022-11-30T23:09:07.123Z,22.27
2022-11-30T23:14:12.369Z,22.30
2022-11-30T23:19:16.136Z,23.63
2022-11-30T23:24:21.606Z,23.00
2022-11-30T23:29:26.516Z,22.90
2022-11-30T23:34:29.992Z,21.93
2022-11-30T23:39:33.355Z,22.17
2022-11-30T23:44:38.131Z,21.73
2022-11-30T23:49:41.464Z,20.73
2022-11-30T23:54:44.821Z,21.13
2022-11-30T23:59:49.714Z,22.77
